createdAt,value
2022-10-05T00:02:20.613Z,100857.89
2022-10-05T00:06:29.576Z,100853.16
2022-10-05T00:10:37.561Z,100860.55
2022-10-05T00:14:49.237Z,100864.30
2022-10-05T00:18:57.322Z,100861.60
2022-10-05T00:23:09.740Z,100862.73
2022-10-05T00:27:21.375Z,100861.16
2022-10-05T00:31:33.952Z,100847.67
2022-10-05T00:35:41.768Z,100828.80
2022-10-05T00:39:50.065Z,100816.55
2022-10-05T00:44:21.125Z,100810.56
2022-10-05T00:48:37.278Z,100807.94
2022-10-05T00:52:51.789Z,100808.21
2022-10-05T00:57:15.055Z,100811.07
2022-10-05T01:01:29.127Z,100809.66
2022-10-05T01:05:56.463Z,100809.52
2022-10-05T01:10:10.640Z,100808.67
2022-10-05T01:14:22.195Z,100799.60
2022-10-05T01:18:39.008Z,100790.20
2022-10-05T01:23:09.400Z,100790.54
2022-10-05T01:27:35.684Z,100788.46
2022-10-05T01:31:46.870Z,100800.94
2022-10-05T01:36:01.770Z,100793.45
2022-10-05T01:40:13.096Z,100785.38
2022-10-05T01:44:24.260Z,100793.36
2022-10-05T01:48:42.004Z,100798.91
2022-10-05T01:52:57.117Z,100799.38
2022-10-05T01:57:10.870Z,100796.53
2022-10-05T02:01:26.849Z,100793.36
2022-10-05T02:05:39.562Z,100785.02
2022-10-05T02:09:50.153Z,100792.11
2022-10-05T02:14:00.806Z,100800.17
2022-10-05T02:18:13.990Z,100802.29
2022-10-05T02:22:26.497Z,100807.61
2022-10-05T02:26:35.122Z,100803.26
2022-10-05T02:30:46.648Z,100793.19
2022-10-05T02:34:54.548Z,100783.75
2022-10-05T02:39:08.367Z,100772.25
2022-10-05T02:43:23.727Z,100772.45
2022-10-05T02:47:35.049Z,100771.96
2022-10-05T02:51:50.946Z,100774.43
2022-10-05T02:56:05.516Z,100773.13
2022-10-05T03:00:17.205Z,100771.51
2022-10-05T03:04:34.543Z,100770.01
2022-10-05T03:08:48.523Z,100771.08
2022-10-05T03:13:01.082Z,100765.77
2022-10-05T03:17:17.398Z,100761.84
2022-10-05T03:21:34.030Z,100762.91
2022-10-05T03:25:55.934Z,100758.79
2022-10-05T03:30:07.379Z,100759.83
2022-10-05T03:34:20.101Z,100744.45
2022-10-05T03:38:32.308Z,100738.55
2022-10-05T03:42:53.751Z,100737.20
2022-10-05T03:47:13.242Z,100735.84
2022-10-05T03:51:27.066Z,100735.83
2022-10-05T03:55:41.196Z,100739.23
2022-10-05T03:59:56.719Z,100741.30
2022-10-05T04:04:06.601Z,100746.50
2022-10-05T04:08:18.578Z,100753.73
2022-10-05T04:12:27.972Z,100754.27
2022-10-05T04:16:40.392Z,100744.42
2022-10-05T04:20:52.309Z,100735.27
2022-10-05T04:25:05.015Z,100734.56
2022-10-05T04:29:17.922Z,100738.36
2022-10-05T04:33:25.816Z,100738.14
2022-10-05T04:37:39.022Z,100733.81
2022-10-05T04:42:02.302Z,100738.08
2022-10-05T04:46:23.597Z,100729.80
2022-10-05T04:50:45.914Z,100714.91
2022-10-05T04:55:10.742Z,100726.46
2022-10-05T04:59:40.514Z,100726.02
2022-10-05T05:04:06.983Z,100715.89
2022-10-05T05:08:24.575Z,100709.36
2022-10-05T05:12:41.988Z,100703.63
2022-10-05T05:16:56.940Z,100716.85
2022-10-05T05:21:14.670Z,100725.29
2022-10-05T05:25:39.720Z,100721.48
2022-10-05T05:29:59.021Z,100720.42
2022-10-05T05:34:17.117Z,100720.04
2022-10-05T05:38:31.957Z,100727.16
2022-10-05T05:42:44.088Z,100724.05
2022-10-05T05:47:04.101Z,100723.38
2022-10-05T05:51:18.006Z,100735.13
2022-10-05T05:55:30.545Z,100744.71
2022-10-05T05:59:49.119Z,100748.06
2022-10-05T06:04:01.505Z,100755.70
2022-10-05T06:08:17.299Z,100752.66
2022-10-05T06:12:26.925Z,100750.91
2022-10-05T06:16:39.040Z,100754.02
2022-10-05T06:20:51.322Z,100750.48
2022-10-05T06:25:08.230Z,100756.29
2022-10-05T06:29:20.679Z,100763.15
2022-10-05T06:33:45.877Z,100760.90
2022-10-05T06:38:02.768Z,100771.84
2022-10-05T06:42:28.788Z,100775.13
2022-10-05T06:46:40.883Z,100773.70
2022-10-05T06:50:52.136Z,100777.35
2022-10-05T06:55:14.199Z,100777.18
2022-10-05T06:59:28.252Z,100774.54
2022-10-05T07:03:45.625Z,100770.61
2022-10-05T07:07:56.431Z,100763.77
2022-10-05T07:12:17.450Z,100758.34
2022-10-05T07:16:31.968Z,100755.86
2022-10-05T07:20:49.244Z,100755.84
2022-10-05T07:25:06.093Z,100756.59
2022-10-05T07:29:33.095Z,100768.33
2022-10-05T07:33:44.889Z,100769.54
2022-10-05T07:37:58.097Z,100774.91
2022-10-05T07:42:25.234Z,100770.02
2022-10-05T07:46:36.808Z,100774.24
2022-10-05T07:50:51.153Z,100773.23
2022-10-05T07:55:04.039Z,100767.77
2022-10-05T07:59:17.470Z,100756.94
2022-10-05T08:03:34.579Z,100756.12
2022-10-05T08:07:42.661Z,100756.59
2022-10-05T08:11:54.899Z,100750.16
2022-10-05T08:16:05.581Z,100754.50
2022-10-05T08:20:28.039Z,100754.05
2022-10-05T08:24:46.262Z,100748.36
2022-10-05T08:29:09.131Z,100745.48
2022-10-05T08:33:20.353Z,100744.96
2022-10-05T08:37:30.809Z,100746.23
2022-10-05T08:42:06.190Z,100745.38
2022-10-05T08:46:40.523Z,100741.41
2022-10-05T08:51:09.411Z,100734.52
2022-10-05T08:55:30.041Z,100731.73
2022-10-05T08:59:58.636Z,100735.08
2022-10-05T09:04:30.326Z,100734.95
2022-10-05T09:08:55.525Z,100727.52
2022-10-05T09:13:21.023Z,100728.88
2022-10-05T09:17:50.124Z,100729.86
2022-10-05T09:22:02.834Z,100736.77
2022-10-05T09:26:25.118Z,100738.87
2022-10-05T09:30:48.792Z,100742.83
2022-10-05T09:35:07.497Z,100747.27
2022-10-05T09:40:01.559Z,100749.59
2022-10-05T09:44:47.481Z,100750.40
2022-10-05T09:49:36.723Z,100745.58
2022-10-05T09:54:12.084Z,100741.10
2022-10-05T09:58:51.904Z,100732.30
2022-10-05T10:03:24.613Z,100732.33
2022-10-05T10:07:56.146Z,100725.92
2022-10-05T10:12:28.854Z,100723.31
2022-10-05T10:17:08.878Z,100721.66
2022-10-05T10:21:35.620Z,100713.66
2022-10-05T10:26:16.787Z,100704.47
2022-10-05T10:30:52.179Z,100701.55
2022-10-05T10:35:19.624Z,100700.73
2022-10-05T10:39:40.915Z,100693.80
2022-10-05T10:44:16.820Z,100695.14
2022-10-05T10:49:00.894Z,100698.44
2022-10-05T10:53:29.760Z,100698.40
2022-10-05T10:57:48.514Z,100690.34
2022-10-05T11:02:09.549Z,100693.98
2022-10-05T11:06:28.777Z,100690.26
2022-10-05T11:11:08.336Z,100688.80
2022-10-05T11:15:35.303Z,100685.84
2022-10-05T11:20:04.188Z,100687.82
2022-10-05T11:24:40.253Z,100685.48
2022-10-05T11:29:19.035Z,100670.23
2022-10-05T11:33:51.054Z,100662.95
2022-10-05T11:38:52.356Z,100657.70
2022-10-05T11:43:18.128Z,100652.94
2022-10-05T11:47:28.087Z,100648.19
2022-10-05T11:51:43.211Z,100643.98
2022-10-05T11:56:05.295Z,100630.83
2022-10-05T12:00:22.366Z,100619.26
2022-10-05T12:04:37.234Z,100613.65
2022-10-05T12:08:52.668Z,100615.52
2022-10-05T12:13:11.251Z,100612.04
2022-10-05T12:17:23.908Z,100612.91
2022-10-05T12:21:41.678Z,100611.17
2022-10-05T12:25:52.783Z,100606.44
2022-10-05T12:30:06.457Z,100604.14
2022-10-05T12:34:23.345Z,100600.73
2022-10-05T12:38:34.979Z,100597.02
2022-10-05T12:42:50.753Z,100598.33
2022-10-05T12:47:06.228Z,100600.16
2022-10-05T12:51:20.865Z,100599.95
2022-10-05T12:55:33.979Z,100599.80
2022-10-05T12:59:46.539Z,100602.63
2022-10-05T13:03:59.479Z,100601.27
2022-10-05T13:08:18.009Z,100602.23
2022-10-05T13:12:35.687Z,100597.98
2022-10-05T13:16:48.343Z,100590.36
2022-10-05T13:21:04.991Z,100588.00
2022-10-05T13:25:22.363Z,100585.65
2022-10-05T13:29:34.468Z,100586.09
2022-10-05T13:34:02.708Z,100583.02
2022-10-05T13:38:27.521Z,100581.23
2022-10-05T13:42:39.268Z,100576.08
2022-10-05T13:46:51.507Z,100573.64
2022-10-05T13:51:06.800Z,100574.34
2022-10-05T13:55:22.618Z,100574.91
2022-10-05T13:59:34.730Z,100566.22
2022-10-05T14:03:42.866Z,100562.61
2022-10-05T14:07:55.727Z,100561.66
2022-10-05T14:12:25.522Z,100561.02
2022-10-05T14:16:35.748Z,100553.14
2022-10-05T14:21:00.959Z,100552.59
2022-10-05T14:25:19.489Z,100548.64
2022-10-05T14:29:36.706Z,100546.31
2022-10-05T14:33:44.836Z,100548.36
2022-10-05T14:37:58.288Z,100549.92
2022-10-05T14:42:20.426Z,100551.96
2022-10-05T14:46:30.630Z,100547.38
2022-10-05T14:50:53.109Z,100545.43
2022-10-05T14:55:02.717Z,100541.48
2022-10-05T14:59:26.051Z,100535.69
2022-10-05T15:03:48.932Z,100533.69
2022-10-05T15:08:00.030Z,100527.48
2022-10-05T15:12:07.905Z,100516.84
2022-10-05T15:16:22.671Z,100519.30
2022-10-05T15:20:35.538Z,100512.80
2022-10-05T15:24:47.494Z,100514.43
2022-10-05T15:29:00.671Z,100515.23
2022-10-05T15:33:19.927Z,100508.94
2022-10-05T15:37:32.787Z,100506.13
2022-10-05T15:41:55.494Z,100504.77
2022-10-05T15:46:10.663Z,100497.44
2022-10-05T15:50:25.426Z,100499.07
2022-10-05T15:55:06.206Z,100496.26
2022-10-05T15:59:19.794Z,100493.68
2022-10-05T16:03:31.934Z,100490.75
2022-10-05T16:08:12.568Z,100496.29
2022-10-05T16:12:27.136Z,100497.14
2022-10-05T16:16:39.742Z,100502.50
2022-10-05T16:20:54.728Z,100508.23
2022-10-05T16:25:11.371Z,100510.24
2022-10-05T16:29:25.036Z,100514.87
2022-10-05T16:33:45.964Z,100520.67
2022-10-05T16:37:59.774Z,100516.89
2022-10-05T16:42:16.269Z,100515.91
2022-10-05T16:46:31.203Z,100520.30
2022-10-05T16:50:49.964Z,100523.59
2022-10-05T16:55:02.912Z,100526.73
2022-10-05T16:59:26.596Z,100526.55
2022-10-05T17:03:47.447Z,100527.52
2022-10-05T17:08:07.557Z,100528.60
2022-10-05T17:12:29.574Z,100525.64
2022-10-05T17:16:49.578Z,100525.55
2022-10-05T17:21:08.086Z,100534.69
2022-10-05T17:25:22.584Z,100531.80
2022-10-05T17:29:33.273Z,100528.39
2022-10-05T17:34:21.196Z,100525.17
2022-10-05T17:38:48.753Z,100516.57
2022-10-05T17:43:02.530Z,100515.98
2022-10-05T17:47:16.411Z,100511.26
2022-10-05T17:52:21.921Z,100507.27
2022-10-05T17:56:30.826Z,100508.14
2022-10-05T18:00:43.868Z,100501.54
2022-10-05T18:05:07.211Z,100505.52
2022-10-05T18:09:37.883Z,100496.90
2022-10-05T18:13:50.406Z,100493.12
2022-10-05T18:18:19.137Z,100496.94
2022-10-05T18:22:31.282Z,100497.02
2022-10-05T18:26:44.195Z,100494.20
2022-10-05T18:31:04.830Z,100489.23
2022-10-05T18:35:16.632Z,100490.77
2022-10-05T18:39:39.046Z,100491.23
2022-10-05T18:43:51.197Z,100483.91
2022-10-05T18:48:11.497Z,100486.77
2022-10-05T18:52:25.834Z,100479.17
2022-10-05T18:56:37.932Z,100484.58
2022-10-05T19:00:59.001Z,100481.94
2022-10-05T19:05:42.527Z,100484.17
2022-10-05T19:09:58.654Z,100485.23
2022-10-05T19:14:15.375Z,100487.21
2022-10-05T19:18:39.911Z,100483.20
2022-10-05T19:22:57.450Z,100489.10
2022-10-05T19:27:10.407Z,100486.61
2022-10-05T19:31:27.301Z,100485.55
2022-10-05T19:35:45.248Z,100485.05
2022-10-05T19:39:57.805Z,100485.22
2022-10-05T19:44:18.831Z,100485.14
2022-10-05T19:48:33.424Z,100485.33
2022-10-05T19:52:49.720Z,100484.63
2022-10-05T19:56:58.460Z,100479.18
2022-10-05T20:01:08.000Z,100482.85
2022-10-05T20:05:17.192Z,100486.11
2022-10-05T20:09:24.950Z,100491.70
2022-10-05T20:13:35.360Z,100493.52
2022-10-05T20:18:01.486Z,100493.57
2022-10-05T20:22:29.441Z,100498.83
2022-10-05T20:27:16.083Z,100504.71
2022-10-05T20:31:23.995Z,100508.70
2022-10-05T20:35:32.763Z,100515.39
2022-10-05T20:39:41.862Z,100519.70
2022-10-05T20:43:49.169Z,100530.52
2022-10-05T20:47:56.290Z,100532.61
2022-10-05T20:52:04.972Z,100537.02
2022-10-05T20:56:12.573Z,100539.36
2022-10-05T21:00:20.520Z,100539.56
2022-10-05T21:04:36.096Z,100541.14
2022-10-05T21:08:51.480Z,100545.61
2022-10-05T21:13:02.893Z,100547.48
2022-10-05T21:17:12.726Z,100550.95
2022-10-05T21:21:21.971Z,100552.02
2022-10-05T21:25:29.743Z,100553.50
2022-10-05T21:29:41.215Z,100561.42
2022-10-05T21:33:48.784Z,100567.00
2022-10-05T21:37:56.278Z,100575.77
2022-10-05T21:42:03.923Z,100585.23
2022-10-05T21:46:12.338Z,100590.95
2022-10-05T21:50:21.560Z,100596.91
2022-10-05T21:54:30.886Z,100602.21
2022-10-05T21:58:38.410Z,100607.96
2022-10-05T22:02:46.251Z,100616.77
2022-10-05T22:06:54.356Z,100622.73
2022-10-05T22:11:02.902Z,100627.59
2022-10-05T22:15:11.847Z,100632.64
2022-10-05T22:19:22.944Z,100632.97
2022-10-05T22:23:30.457Z,100635.42
2022-10-05T22:27:38.528Z,100637.35
2022-10-05T22:31:49.180Z,100641.84
2022-10-05T22:35:57.897Z,100639.17
2022-10-05T22:40:05.518Z,100639.89
2022-10-05T22:44:13.663Z,100641.44
2022-10-05T22:48:21.406Z,100638.80
2022-10-05T22:52:29.618Z,100643.35
2022-10-05T22:56:38.427Z,100646.88
2022-10-05T23:00:57.986Z,100646.83
2022-10-05T23:05:07.199Z,100645.60
2022-10-05T23:09:14.711Z,100649.26
2022-10-05T23:13:22.752Z,100655.66
2022-10-05T23:17:35.905Z,100660.05
2022-10-05T23:21:43.843Z,100664.21
2022-10-05T23:25:51.669Z,100670.52
2022-10-05T23:29:59.391Z,100674.32
2022-10-05T23:34:06.903Z,100676.19
2022-10-05T23:38:14.831Z,100676.98
2022-10-05T23:42:22.489Z,100680.48
2022-10-05T23:46:32.031Z,100685.14
2022-10-05T23:50:40.342Z,100689.45
2022-10-05T23:54:48.398Z,100690.19
2022-10-05T23:58:56.450Z,100690.26
